sensor_id;sensor_type;location;lat;lon;timestamp;pressure;altitude;pressure_sealevel;temperature;humidity
51781;BME280;37844;57.126;24.288;2023-07-30T00:02:37;100598.53;;;15.15;100.00
51781;BME280;37844;57.126;24.288;2023-07-30T00:05:20;100595.94;;;15.16;100.00
51781;BME280;37844;57.126;24.288;2023-07-30T00:08:05;100592.53;;;15.10;100.00
51781;BME280;37844;57.126;24.288;2023-07-30T00:10:49;100593.53;;;14.93;100.00
51781;BME280;37844;57.126;24.288;2023-07-30T00:13:33;100587.47;;;14.91;100.00
51781;BME280;37844;57.126;24.288;2023-07-30T00:16:17;100594.44;;;14.84;100.00
51781;BME280;37844;57.126;24.288;2023-07-30T00:19:01;100585.72;;;14.92;100.00
51781;BME280;37844;57.126;24.288;2023-07-30T00:21:45;100587.41;;;14.99;100.00
51781;BME280;37844;57.126;24.288;2023-07-30T00:24:30;100584.00;;;14.95;100.00
51781;BME280;37844;57.126;24.288;2023-07-30T00:27:14;100591.78;;;14.92;100.00
51781;BME280;37844;57.126;24.288;2023-07-30T00:29:58;100590.13;;;14.82;100.00
51781;BME280;37844;57.126;24.288;2023-07-30T00:32:42;100603.03;;;14.93;100.00
51781;BME280;37844;57.126;24.288;2023-07-30T00:35:27;100599.66;;;14.83;100.00
51781;BME280;37844;57.126;24.288;2023-07-30T00:38:11;100598.81;;;14.78;100.00
51781;BME280;37844;57.126;24.288;2023-07-30T00:40:55;100597.19;;;14.65;100.00
51781;BME280;37844;57.126;24.288;2023-07-30T00:43:40;100594.63;;;14.55;100.00
51781;BME280;37844;57.126;24.288;2023-07-30T00:46:24;100592.88;;;14.50;100.00
51781;BME280;37844;57.126;24.288;2023-07-30T00:49:08;100595.47;;;14.53;100.00
51781;BME280;37844;57.126;24.288;2023-07-30T00:51:53;100592.88;;;14.62;100.00
51781;BME280;37844;57.126;24.288;2023-07-30T00:54:39;100592.88;;;14.62;100.00
51781;BME280;37844;57.126;24.288;2023-07-30T00:57:24;100592.88;;;14.62;100.00
51781;BME280;37844;57.126;24.288;2023-07-30T01:00:09;100603.25;;;14.51;100.00
51781;BME280;37844;57.126;24.288;2023-07-30T01:02:55;100597.22;;;14.54;100.00
51781;BME280;37844;57.126;24.288;2023-07-30T01:05:39;100599.84;;;14.48;100.00
51781;BME280;37844;57.126;24.288;2023-07-30T01:08:23;100608.50;;;14.43;100.00
51781;BME280;37844;57.126;24.288;2023-07-30T01:11:08;100601.59;;;14.39;100.00
51781;BME280;37844;57.126;24.288;2023-07-30T01:13:54;100596.44;;;14.32;100.00
51781;BME280;37844;57.126;24.288;2023-07-30T01:16:39;100595.66;;;14.16;100.00
51781;BME280;37844;57.126;24.288;2023-07-30T01:19:23;100605.19;;;14.05;100.00
51781;BME280;37844;57.126;24.288;2023-07-30T01:22:07;100599.16;;;14.04;100.00
51781;BME280;37844;57.126;24.288;2023-07-30T01:24:51;100596.56;;;14.06;100.00
51781;BME280;37844;57.126;24.288;2023-07-30T01:27:40;100604.34;;;14.04;100.00
51781;BME280;37844;57.126;24.288;2023-07-30T01:30:32;100598.28;;;14.08;100.00
51781;BME280;37844;57.126;24.288;2023-07-30T01:33:19;100618.13;;;14.14;100.00
51781;BME280;37844;57.126;24.288;2023-07-30T01:36:04;100619.03;;;14.10;100.00
51781;BME280;37844;57.126;24.288;2023-07-30T01:38:50;100613.06;;;13.72;100.00
51781;BME280;37844;57.126;24.288;2023-07-30T01:41:38;100603.59;;;13.64;100.00
51781;BME280;37844;57.126;24.288;2023-07-30T01:44:22;100605.31;;;13.62;100.00
51781;BME280;37844;57.126;24.288;2023-07-30T01:47:08;100601.84;;;13.66;100.00
51781;BME280;37844;57.126;24.288;2023-07-30T01:49:52;100604.44;;;13.75;100.00
51781;BME280;37844;57.126;24.288;2023-07-30T01:52:36;100602.69;;;13.78;100.00
51781;BME280;37844;57.126;24.288;2023-07-30T01:55:20;100600.06;;;13.89;100.00
51781;BME280;37844;57.126;24.288;2023-07-30T01:58:04;100597.47;;;13.94;100.00
51781;BME280;37844;57.126;24.288;2023-07-30T02:00:48;100599.22;;;13.89;100.00
51781;BME280;37844;57.126;24.288;2023-07-30T02:03:32;100597.47;;;13.95;100.00
51781;BME280;37844;57.126;24.288;2023-07-30T02:06:16;100593.97;;;14.04;100.00
51781;BME280;37844;57.126;24.288;2023-07-30T02:09:01;100591.38;;;14.04;100.00
51781;BME280;37844;57.126;24.288;2023-07-30T02:11:45;100591.38;;;14.04;100.00
51781;BME280;37844;57.126;24.288;2023-07-30T02:14:29;100606.09;;;14.00;100.00
51781;BME280;37844;57.126;24.288;2023-07-30T02:17:13;100598.34;;;13.91;100.00
51781;BME280;37844;57.126;24.288;2023-07-30T02:19:57;100599.25;;;13.81;100.00
51781;BME280;37844;57.126;24.288;2023-07-30T02:22:41;100597.50;;;13.82;100.00
51781;BME280;37844;57.126;24.288;2023-07-30T02:25:26;100600.13;;;13.69;100.00
51781;BME280;37844;57.126;24.288;2023-07-30T02:28:09;100596.66;;;13.76;100.00
51781;BME280;37844;57.126;24.288;2023-07-30T02:30:54;100594.94;;;13.72;100.00
51781;BME280;37844;57.126;24.288;2023-07-30T02:33:38;100596.66;;;13.69;100.00
51781;BME280;37844;57.126;24.288;2023-07-30T02:36:23;100588.88;;;13.73;100.00
51781;BME280;37844;57.126;24.288;2023-07-30T02:39:07;100589.75;;;13.72;100.00
51781;BME280;37844;57.126;24.288;2023-07-30T02:41:51;100593.22;;;13.68;100.00
51781;BME280;37844;57.126;24.288;2023-07-30T02:44:35;100582.88;;;13.61;100.00
51781;BME280;37844;57.126;24.288;2023-07-30T02:47:19;100590.63;;;13.65;100.00
51781;BME280;37844;57.126;24.288;2023-07-30T02:50:04;100588.03;;;13.64;100.00
51781;BME280;37844;57.126;24.288;2023-07-30T02:52:49;100597.56;;;13.52;100.00
51781;BME280;37844;57.126;24.288;2023-07-30T02:55:33;100588.03;;;13.64;100.00
51781;BME280;37844;57.126;24.288;2023-07-30T02:58:17;100588.91;;;13.67;100.00
51781;BME280;37844;57.126;24.288;2023-07-30T03:01:08;100593.25;;;13.61;100.00
51781;BME280;37844;57.126;24.288;2023-07-30T03:03:53;100586.34;;;13.55;100.00
51781;BME280;37844;57.126;24.288;2023-07-30T03:06:36;100590.66;;;13.47;100.00
51781;BME280;37844;57.126;24.288;2023-07-30T03:09:20;100592.38;;;13.57;100.00
51781;BME280;37844;57.126;24.288;2023-07-30T03:12:05;100587.22;;;13.55;100.00
51781;BME280;37844;57.126;24.288;2023-07-30T03:14:49;100588.09;;;13.53;100.00
51781;BME280;37844;57.126;24.288;2023-07-30T03:17:33;100594.06;;;13.69;100.00
51781;BME280;37844;57.126;24.288;2023-07-30T03:20:17;100581.94;;;13.78;100.00
51781;BME280;37844;57.126;24.288;2023-07-30T03:23:01;100576.75;;;13.85;100.00
51781;BME280;37844;57.126;24.288;2023-07-30T03:25:45;100582.78;;;13.91;100.00
51781;BME280;37844;57.126;24.288;2023-07-30T03:28:29;100581.88;;;14.03;100.00
51781;BME280;37844;57.126;24.288;2023-07-30T03:31:13;100583.59;;;14.07;100.00
51781;BME280;37844;57.126;24.288;2023-07-30T03:33:58;100587.03;;;14.09;100.00
51781;BME280;37844;57.126;24.288;2023-07-30T03:36:42;100590.53;;;14.04;100.00
51781;BME280;37844;57.126;24.288;2023-07-30T03:39:26;100587.00;;;14.14;100.00
51781;BME280;37844;57.126;24.288;2023-07-30T03:42:10;100588.72;;;14.18;100.00
51781;BME280;37844;57.126;24.288;2023-07-30T03:44:54;100593.78;;;14.42;100.00
51781;BME280;37844;57.126;24.288;2023-07-30T03:47:38;100591.13;;;14.61;100.00
51781;BME280;37844;57.126;24.288;2023-07-30T03:50:23;100587.56;;;14.77;100.00
51781;BME280;37844;57.126;24.288;2023-07-30T03:53:07;100586.69;;;14.83;100.00
51781;BME280;37844;57.126;24.288;2023-07-30T03:55:51;100595.22;;;14.97;100.00
51781;BME280;37844;57.126;24.288;2023-07-30T03:58:35;100588.28;;;14.96;100.00
51781;BME280;37844;57.126;24.288;2023-07-30T04:01:26;100585.69;;;14.96;100.00
51781;BME280;37844;57.126;24.288;2023-07-30T04:04:11;100592.59;;;14.99;100.00
51781;BME280;37844;57.126;24.288;2023-07-30T04:06:55;100586.50;;;15.04;100.00
51781;BME280;37844;57.126;24.288;2023-07-30T04:09:39;100589.00;;;15.15;100.00
51781;BME280;37844;57.126;24.288;2023-07-30T04:12:23;100588.03;;;15.25;100.00
51781;BME280;37844;57.126;24.288;2023-07-30T04:15:07;100593.31;;;15.18;100.00
51781;BME280;37844;57.126;24.288;2023-07-30T04:17:51;100578.63;;;15.17;100.00
51781;BME280;37844;57.126;24.288;2023-07-30T04:20:35;100585.53;;;15.19;100.00
51781;BME280;37844;57.126;24.288;2023-07-30T04:23:19;100587.22;;;15.23;100.00
51781;BME280;37844;57.126;24.288;2023-07-30T04:26:03;100597.56;;;15.26;100.00
51781;BME280;37844;57.126;24.288;2023-07-30T04:28:47;100595.84;;;15.27;100.00
51781;BME280;37844;57.126;24.288;2023-07-30T04:31:31;100596.53;;;15.46;100.00
51781;BME280;37844;57.126;24.288;2023-07-30T04:34:16;100592.84;;;15.67;100.00
51781;BME280;37844;57.126;24.288;2023-07-30T04:37:00;100592.72;;;15.82;100.00
51781;BME280;37844;57.126;24.288;2023-07-30T04:39:45;100586.44;;;16.00;100.00
51781;BME280;37844;57.126;24.288;2023-07-30T04:42:29;100582.00;;;16.11;100.00
51781;BME280;37844;57.126;24.288;2023-07-30T04:45:13;100587.78;;;16.32;100.00
51781;BME280;37844;57.126;24.288;2023-07-30T04:47:57;100583.25;;;16.46;100.00
51781;BME280;37844;57.126;24.288;2023-07-30T04:50:41;100573.72;;;16.45;100.00
51781;BME280;37844;57.126;24.288;2023-07-30T04:53:26;100580.34;;;16.68;100.00
51781;BME280;37844;57.126;24.288;2023-07-30T04:56:10;100573.88;;;16.97;100.00
51781;BME280;37844;57.126;24.288;2023-07-30T04:58:54;100570.16;;;17.10;100.00
51781;BME280;37844;57.126;24.288;2023-07-30T05:01:38;100568.19;;;17.24;100.00
51781;BME280;37844;57.126;24.288;2023-07-30T05:04:22;100568.66;;;17.46;100.00
51781;BME280;37844;57.126;24.288;2023-07-30T05:07:06;100568.47;;;17.55;100.00
51781;BME280;37844;57.126;24.288;2023-07-30T05:09:50;100560.47;;;17.68;100.00
51781;BME280;37844;57.126;24.288;2023-07-30T05:12:34;100551.44;;;17.86;100.00
51781;BME280;37844;57.126;24.288;2023-07-30T05:15:17;100559.63;;;18.11;100.00
51781;BME280;37844;57.126;24.288;2023-07-30T05:18:02;100556.38;;;18.38;100.00
51781;BME280;37844;57.126;24.288;2023-07-30T05:20:46;100543.84;;;18.54;100.00
51781;BME280;37844;57.126;24.288;2023-07-30T05:23:30;100532.13;;;18.72;100.00
51781;BME280;37844;57.126;24.288;2023-07-30T05:26:14;100537.72;;;18.94;100.00
51781;BME280;37844;57.126;24.288;2023-07-30T05:28:58;100542.06;;;19.28;100.00
51781;BME280;37844;57.126;24.288;2023-07-30T05:31:42;100531.22;;;19.43;100.00
51781;BME280;37844;57.126;24.288;2023-07-30T05:34:26;100531.97;;;19.80;100.00
51781;BME280;37844;57.126;24.288;2023-07-30T05:37:10;100535.63;;;20.04;100.00
51781;BME280;37844;57.126;24.288;2023-07-30T05:39:54;100521.56;;;20.08;100.00
51781;BME280;37844;57.126;24.288;2023-07-30T05:42:38;100535.81;;;20.27;100.00
51781;BME280;37844;57.126;24.288;2023-07-30T05:45:22;100532.34;;;20.55;100.00
51781;BME280;37844;57.126;24.288;2023-07-30T05:48:05;100534.50;;;20.69;100.00
51781;BME280;37844;57.126;24.288;2023-07-30T05:50:49;100527.13;;;20.82;100.00
51781;BME280;37844;57.126;24.288;2023-07-30T05:53:33;100535.22;;;21.01;100.00
51781;BME280;37844;57.126;24.288;2023-07-30T05:56:17;100527.50;;;20.98;100.00
51781;BME280;37844;57.126;24.288;2023-07-30T05:59:02;100527.53;;;20.96;100.00
51781;BME280;37844;57.126;24.288;2023-07-30T06:01:46;100538.28;;;21.13;100.00
51781;BME280;37844;57.126;24.288;2023-07-30T06:04:30;100526.66;;;21.47;100.00
51781;BME280;37844;57.126;24.288;2023-07-30T06:07:14;100510.41;;;21.61;100.00
51781;BME280;37844;57.126;24.288;2023-07-30T06:09:58;100524.09;;;21.46;99.29
51781;BME280;37844;57.126;24.288;2023-07-30T06:12:43;100521.91;;;21.32;99.28
51781;BME280;37844;57.126;24.288;2023-07-30T06:15:27;100519.75;;;21.45;98.98
51781;BME280;37844;57.126;24.288;2023-07-30T06:18:11;100516.97;;;21.49;98.30
51781;BME280;37844;57.126;24.288;2023-07-30T06:20:55;100511.50;;;21.55;96.85
51781;BME280;37844;57.126;24.288;2023-07-30T06:23:39;100511.97;;;21.67;95.73
51781;BME280;37844;57.126;24.288;2023-07-30T06:26:23;100516.19;;;21.71;97.05
51781;BME280;37844;57.126;24.288;2023-07-30T06:29:07;100518.75;;;22.41;93.75
51781;BME280;37844;57.126;24.288;2023-07-30T06:31:51;100511.19;;;22.98;91.49
51781;BME280;37844;57.126;24.288;2023-07-30T06:34:35;100502.59;;;23.36;88.20
51781;BME280;37844;57.126;24.288;2023-07-30T06:37:19;100512.50;;;24.98;81.01
51781;BME280;37844;57.126;24.288;2023-07-30T06:40:03;100495.06;;;26.75;73.50
51781;BME280;37844;57.126;24.288;2023-07-30T06:42:50;100496.25;;;28.14;67.70
51781;BME280;37844;57.126;24.288;2023-07-30T06:45:34;100483.34;;;28.77;60.69
51781;BME280;37844;57.126;24.288;2023-07-30T06:48:18;100489.69;;;29.14;55.55
51781;BME280;37844;57.126;24.288;2023-07-30T06:51:05;100497.59;;;28.61;52.91
51781;BME280;37844;57.126;24.288;2023-07-30T06:53:50;100496.97;;;27.89;54.50
51781;BME280;37844;57.126;24.288;2023-07-30T06:56:35;100492.59;;;28.29;53.27
51781;BME280;37844;57.126;24.288;2023-07-30T06:59:19;100475.78;;;27.89;54.30
51781;BME280;37844;57.126;24.288;2023-07-30T07:02:03;100492.06;;;28.51;52.70
51781;BME280;37844;57.126;24.288;2023-07-30T07:04:48;100488.00;;;28.19;51.90
51781;BME280;37844;57.126;24.288;2023-07-30T07:07:33;100483.69;;;28.03;52.79
51781;BME280;37844;57.126;24.288;2023-07-30T07:10:23;100483.00;;;29.21;51.62
51781;BME280;37844;57.126;24.288;2023-07-30T07:13:07;100485.25;;;28.87;50.93
51781;BME280;37844;57.126;24.288;2023-07-30T07:15:51;100478.78;;;28.79;51.07
51781;BME280;37844;57.126;24.288;2023-07-30T07:18:36;100479.94;;;28.87;51.20
51781;BME280;37844;57.126;24.288;2023-07-30T07:21:20;100480.63;;;28.09;51.08
51781;BME280;37844;57.126;24.288;2023-07-30T07:24:04;100478.66;;;26.98;52.63
51781;BME280;37844;57.126;24.288;2023-07-30T07:26:49;100484.94;;;26.35;54.15
51781;BME280;37844;57.126;24.288;2023-07-30T07:29:33;100482.38;;;25.70;56.62
51781;BME280;37844;57.126;24.288;2023-07-30T07:32:17;100485.06;;;25.53;57.03
51781;BME280;37844;57.126;24.288;2023-07-30T07:35:02;100476.88;;;25.42;58.98
51781;BME280;37844;57.126;24.288;2023-07-30T07:37:46;100477.59;;;25.10;60.04
51781;BME280;37844;57.126;24.288;2023-07-30T07:40:30;100474.69;;;25.50;60.78
51781;BME280;37844;57.126;24.288;2023-07-30T07:43:15;100488.78;;;25.82;60.39
51781;BME280;37844;57.126;24.288;2023-07-30T07:45:59;100488.81;;;25.65;61.86
51781;BME280;37844;57.126;24.288;2023-07-30T07:48:43;100491.28;;;25.52;61.74
51781;BME280;37844;57.126;24.288;2023-07-30T07:51:27;100485.84;;;25.22;61.96
51781;BME280;37844;57.126;24.288;2023-07-30T07:54:11;100491.34;;;25.00;61.92
51781;BME280;37844;57.126;24.288;2023-07-30T07:56:55;100494.97;;;24.62;64.05
51781;BME280;37844;57.126;24.288;2023-07-30T07:59:39;100489.94;;;24.39;65.83
51781;BME280;37844;57.126;24.288;2023-07-30T08:02:25;100489.16;;;24.37;67.32
51781;BME280;37844;57.126;24.288;2023-07-30T08:05:09;100490.00;;;24.01;67.27
51781;BME280;37844;57.126;24.288;2023-07-30T08:07:53;100491.94;;;23.97;67.16
51781;BME280;37844;57.126;24.288;2023-07-30T08:10:38;100482.72;;;24.06;68.18
51781;BME280;37844;57.126;24.288;2023-07-30T08:13:23;100495.84;;;23.88;68.89
51781;BME280;37844;57.126;24.288;2023-07-30T08:16:07;100487.69;;;23.76;70.67
51781;BME280;37844;57.126;24.288;2023-07-30T08:18:51;100486.00;;;23.73;71.36
51781;BME280;37844;57.126;24.288;2023-07-30T08:21:36;100480.19;;;23.85;72.00
51781;BME280;37844;57.126;24.288;2023-07-30T08:24:20;100487.38;;;23.82;73.42
51781;BME280;37844;57.126;24.288;2023-07-30T08:27:04;100482.94;;;23.63;74.54
51781;BME280;37844;57.126;24.288;2023-07-30T08:29:48;100486.63;;;23.59;75.66
51781;BME280;37844;57.126;24.288;2023-07-30T08:32:33;100481.47;;;23.56;75.53
51781;BME280;37844;57.126;24.288;2023-07-30T08:35:17;100484.91;;;23.58;76.26
51781;BME280;37844;57.126;24.288;2023-07-30T08:38:01;100484.19;;;23.55;77.26
51781;BME280;37844;57.126;24.288;2023-07-30T08:40:45;100493.44;;;23.44;78.10
51781;BME280;37844;57.126;24.288;2023-07-30T08:43:30;100487.22;;;23.26;79.27
51781;BME280;37844;57.126;24.288;2023-07-30T08:46:15;100501.28;;;23.25;79.66
51781;BME280;37844;57.126;24.288;2023-07-30T08:48:59;100499.88;;;22.96;80.80
51781;BME280;37844;57.126;24.288;2023-07-30T08:51:44;100500.44;;;22.82;81.58
51781;BME280;37844;57.126;24.288;2023-07-30T08:54:30;100506.28;;;22.89;83.62
51781;BME280;37844;57.126;24.288;2023-07-30T08:57:16;100501.97;;;22.88;85.41
51781;BME280;37844;57.126;24.288;2023-07-30T09:00:08;100511.31;;;22.95;84.72
51781;BME280;37844;57.126;24.288;2023-07-30T09:02:55;100516.91;;;22.88;84.15
51781;BME280;37844;57.126;24.288;2023-07-30T09:05:40;100512.13;;;22.75;85.46
51781;BME280;37844;57.126;24.288;2023-07-30T09:08:24;100505.59;;;22.85;84.55
51781;BME280;37844;57.126;24.288;2023-07-30T09:11:10;100508.91;;;22.69;81.53
51781;BME280;37844;57.126;24.288;2023-07-30T09:13:55;100512.31;;;22.71;82.54
51781;BME280;37844;57.126;24.288;2023-07-30T09:16:42;100519.16;;;22.75;83.35
51781;BME280;37844;57.126;24.288;2023-07-30T09:19:26;100510.28;;;22.77;82.20
51781;BME280;37844;57.126;24.288;2023-07-30T09:22:11;100509.78;;;22.69;82.57
51781;BME280;37844;57.126;24.288;2023-07-30T09:24:56;100512.81;;;22.80;82.36
51781;BME280;37844;57.126;24.288;2023-07-30T09:27:47;100510.25;;;22.79;80.73
51781;BME280;37844;57.126;24.288;2023-07-30T09:30:32;100515.69;;;22.74;83.20
51781;BME280;37844;57.126;24.288;2023-07-30T09:33:19;100524.91;;;22.62;82.19
51781;BME280;37844;57.126;24.288;2023-07-30T09:36:04;100522.16;;;22.65;84.47
51781;BME280;37844;57.126;24.288;2023-07-30T09:38:50;100529.63;;;22.76;84.45
51781;BME280;37844;57.126;24.288;2023-07-30T09:41:35;100520.63;;;22.82;82.15
51781;BME280;37844;57.126;24.288;2023-07-30T09:44:20;100529.44;;;22.81;82.90
51781;BME280;37844;57.126;24.288;2023-07-30T09:47:08;100531.44;;;22.74;82.91
51781;BME280;37844;57.126;24.288;2023-07-30T09:49:53;100530.84;;;22.68;82.17
51781;BME280;37844;57.126;24.288;2023-07-30T09:52:38;100535.09;;;22.50;82.89
51781;BME280;37844;57.126;24.288;2023-07-30T09:55:22;100528.47;;;22.39;84.05
51781;BME280;37844;57.126;24.288;2023-07-30T09:58:06;100533.53;;;22.44;84.74
51781;BME280;37844;57.126;24.288;2023-07-30T10:00:52;100532.69;;;22.43;84.83
51781;BME280;37844;57.126;24.288;2023-07-30T10:03:37;100533.47;;;22.46;83.81
51781;BME280;37844;57.126;24.288;2023-07-30T10:06:23;100531.34;;;22.55;85.14
51781;BME280;37844;57.126;24.288;2023-07-30T10:09:10;100541.63;;;22.61;85.65
51781;BME280;37844;57.126;24.288;2023-07-30T10:11:56;100530.03;;;22.65;85.63
51781;BME280;37844;57.126;24.288;2023-07-30T10:14:42;100541.66;;;22.60;86.57
51781;BME280;37844;57.126;24.288;2023-07-30T10:17:27;100537.72;;;22.50;85.00
51781;BME280;37844;57.126;24.288;2023-07-30T10:20:22;100547.94;;;22.56;84.31
51781;BME280;37844;57.126;24.288;2023-07-30T10:23:07;100549.66;;;22.35;86.61
51781;BME280;37844;57.126;24.288;2023-07-30T10:25:52;100546.25;;;22.09;85.41
51781;BME280;37844;57.126;24.288;2023-07-30T10:28:37;100560.44;;;22.03;84.81
51781;BME280;37844;57.126;24.288;2023-07-30T10:31:38;100553.41;;;22.04;86.96
51781;BME280;37844;57.126;24.288;2023-07-30T10:34:26;100560.56;;;22.00;88.11
51781;BME280;37844;57.126;24.288;2023-07-30T10:37:17;100561.53;;;21.98;91.11
51781;BME280;37844;57.126;24.288;2023-07-30T10:40:15;100558.78;;;22.01;95.23
51781;BME280;37844;57.126;24.288;2023-07-30T10:43:00;100558.78;;;22.01;98.01
51781;BME280;37844;57.126;24.288;2023-07-30T10:45:50;100553.25;;;22.09;100.00
51781;BME280;37844;57.126;24.288;2023-07-30T10:48:37;100554.19;;;22.08;100.00
51781;BME280;37844;57.126;24.288;2023-07-30T10:51:22;100561.41;;;22.01;100.00
51781;BME280;37844;57.126;24.288;2023-07-30T10:54:07;100558.44;;;22.10;100.00
51781;BME280;37844;57.126;24.288;2023-07-30T10:56:53;100551.09;;;21.96;100.00
51781;BME280;37844;57.126;24.288;2023-07-30T10:59:38;100548.72;;;21.90;100.00
51781;BME280;37844;57.126;24.288;2023-07-30T11:02:22;100526.78;;;21.68;100.00
51781;BME280;37844;57.126;24.288;2023-07-30T11:05:15;100525.00;;;21.68;100.00
51781;BME280;37844;57.126;24.288;2023-07-30T11:07:59;100527.81;;;21.64;100.00
51781;BME280;37844;57.126;24.288;2023-07-30T11:10:47;100529.53;;;21.65;100.00
51781;BME280;37844;57.126;24.288;2023-07-30T11:13:38;100542.75;;;21.62;100.00
51781;BME280;37844;57.126;24.288;2023-07-30T11:16:23;100546.09;;;21.67;100.00
51781;BME280;37844;57.126;24.288;2023-07-30T11:19:10;100542.06;;;21.56;100.00
51781;BME280;37844;57.126;24.288;2023-07-30T11:21:56;100536.19;;;21.50;100.00
51781;BME280;37844;57.126;24.288;2023-07-30T11:24:41;100545.13;;;21.44;100.00
51781;BME280;37844;57.126;24.288;2023-07-30T11:27:25;100549.63;;;21.39;100.00
51781;BME280;37844;57.126;24.288;2023-07-30T11:30:09;100547.06;;;21.37;100.00
51781;BME280;37844;57.126;24.288;2023-07-30T11:32:55;100549.63;;;21.39;100.00
51781;BME280;37844;57.126;24.288;2023-07-30T11:35:40;100551.13;;;21.48;100.00
51781;BME280;37844;57.126;24.288;2023-07-30T11:38:25;100549.88;;;21.58;100.00
51781;BME280;37844;57.126;24.288;2023-07-30T11:41:10;100541.81;;;21.64;100.00
51781;BME280;37844;57.126;24.288;2023-07-30T11:43:55;100542.13;;;21.55;100.00
51781;BME280;37844;57.126;24.288;2023-07-30T11:46:53;100542.53;;;21.43;100.00
51781;BME280;37844;57.126;24.288;2023-07-30T11:49:37;100541.66;;;21.44;100.00
51781;BME280;37844;57.126;24.288;2023-07-30T11:52:22;100540.94;;;21.38;100.00
51781;BME280;37844;57.126;24.288;2023-07-30T11:55:06;100547.94;;;21.38;100.00
51781;BME280;37844;57.126;24.288;2023-07-30T11:57:51;100532.00;;;21.44;100.00
51781;BME280;37844;57.126;24.288;2023-07-30T12:00:37;100538.91;;;21.47;100.00
51781;BME280;37844;57.126;24.288;2023-07-30T12:03:21;100539.28;;;21.36;100.00
51781;BME280;37844;57.126;24.288;2023-07-30T12:06:05;100543.72;;;21.34;100.00
51781;BME280;37844;57.126;24.288;2023-07-30T12:08:50;100548.19;;;21.30;100.00
51781;BME280;37844;57.126;24.288;2023-07-30T12:17:33;100558.91;;;20.71;100.00
51781;BME280;37844;57.126;24.288;2023-07-30T12:20:16;100558.56;;;20.82;100.00
51781;BME280;37844;57.126;24.288;2023-07-30T12:23:01;100555.00;;;20.84;100.00
51781;BME280;37844;57.126;24.288;2023-07-30T12:25:47;100555.81;;;20.86;100.00
51781;BME280;37844;57.126;24.288;2023-07-30T12:28:34;100560.25;;;20.54;100.00
51781;BME280;37844;57.126;24.288;2023-07-30T12:31:18;100561.13;;;20.27;100.00
51781;BME280;37844;57.126;24.288;2023-07-30T12:34:02;100563.88;;;20.22;100.00
51781;BME280;37844;57.126;24.288;2023-07-30T12:36:47;100564.88;;;19.88;100.00
51781;BME280;37844;57.126;24.288;2023-07-30T12:39:31;100578.47;;;19.67;100.00
51781;BME280;37844;57.126;24.288;2023-07-30T12:42:14;100573.69;;;19.52;100.00
51781;BME280;37844;57.126;24.288;2023-07-30T12:44:58;100575.72;;;19.40;100.00
51781;BME280;37844;57.126;24.288;2023-07-30T12:47:42;100582.91;;;19.32;100.00
51781;BME280;37844;57.126;24.288;2023-07-30T12:50:26;100581.03;;;19.37;100.00
51781;BME280;37844;57.126;24.288;2023-07-30T12:53:10;100582.22;;;19.24;100.00
51781;BME280;37844;57.126;24.288;2023-07-30T12:55:55;100581.25;;;19.30;100.00
51781;BME280;37844;57.126;24.288;2023-07-30T12:58:39;100578.56;;;19.31;100.00
51781;BME280;37844;57.126;24.288;2023-07-30T13:01:23;100575.91;;;19.34;100.00
51781;BME280;37844;57.126;24.288;2023-07-30T13:04:07;100580.31;;;19.32;100.00
51781;BME280;37844;57.126;24.288;2023-07-30T13:06:51;100574.91;;;19.38;100.00
51781;BME280;37844;57.126;24.288;2023-07-30T13:09:35;100565.81;;;19.53;100.00
51781;BME280;37844;57.126;24.288;2023-07-30T13:12:19;100567.00;;;19.41;100.00
51781;BME280;37844;57.126;24.288;2023-07-30T13:15:04;100564.97;;;19.18;100.00
51781;BME280;37844;57.126;24.288;2023-07-30T13:17:49;100559.00;;;18.76;100.00
51781;BME280;37844;57.126;24.288;2023-07-30T13:20:33;100564.25;;;18.74;100.00
51781;BME280;37844;57.126;24.288;2023-07-30T13:23:17;100556.53;;;18.70;100.00
51781;BME280;37844;57.126;24.288;2023-07-30T13:26:02;100567.03;;;18.68;100.00
51781;BME280;37844;57.126;24.288;2023-07-30T13:28:46;100563.81;;;18.57;100.00
51781;BME280;37844;57.126;24.288;2023-07-30T13:31:30;100556.66;;;18.28;100.00
51781;BME280;37844;57.126;24.288;2023-07-30T13:34:15;100559.75;;;18.43;100.00
51781;BME280;37844;57.126;24.288;2023-07-30T13:36:59;100551.78;;;18.50;100.00
51781;BME280;37844;57.126;24.288;2023-07-30T13:39:43;100550.00;;;18.53;100.00
51781;BME280;37844;57.126;24.288;2023-07-30T13:42:27;100553.38;;;18.57;100.00
51781;BME280;37844;57.126;24.288;2023-07-30T13:45:11;100551.47;;;18.63;100.00
51781;BME280;37844;57.126;24.288;2023-07-30T13:47:55;100552.97;;;18.74;100.00
51781;BME280;37844;57.126;24.288;2023-07-30T13:50:39;100540.94;;;18.68;100.00
51781;BME280;37844;57.126;24.288;2023-07-30T13:53:23;100543.56;;;18.67;100.00
51781;BME280;37844;57.126;24.288;2023-07-30T13:56:08;100541.75;;;18.70;100.00
51781;BME280;37844;57.126;24.288;2023-07-30T13:58:52;100536.63;;;18.65;100.00
51781;BME280;37844;57.126;24.288;2023-07-30T14:01:36;100542.78;;;18.63;100.00
51781;BME280;37844;57.126;24.288;2023-07-30T14:04:20;100539.16;;;18.69;100.00
51781;BME280;37844;57.126;24.288;2023-07-30T14:07:04;100543.53;;;18.68;100.00
51781;BME280;37844;57.126;24.288;2023-07-30T14:09:48;100540.75;;;18.74;100.00